sensor_id;sensor_type;location;lat;lon;timestamp;pressure;altitude;pressure_sealevel;temperature;humidity
19112;BME280;9688;51.906;8.376;2023-05-10T00:01:15;99849.47;;;16.12;100.00
19112;BME280;9688;51.906;8.376;2023-05-10T00:04:00;99853.97;;;16.12;100.00
19112;BME280;9688;51.906;8.376;2023-05-10T00:06:46;99851.31;;;16.12;100.00
19112;BME280;9688;51.906;8.376;2023-05-10T00:09:34;99838.81;;;16.12;100.00
19112;BME280;9688;51.906;8.376;2023-05-10T00:12:19;99844.06;;;16.14;100.00
19112;BME280;9688;51.906;8.376;2023-05-10T00:15:06;99848.63;;;16.12;100.00
19112;BME280;9688;51.906;8.376;2023-05-10T00:17:54;99848.63;;;16.12;100.00
19112;BME280;9688;51.906;8.376;2023-05-10T00:20:39;99852.06;;;16.14;100.00
19112;BME280;9688;51.906;8.376;2023-05-10T00:23:25;99850.31;;;16.13;100.00
19112;BME280;9688;51.906;8.376;2023-05-10T00:26:10;99845.13;;;16.11;100.00
19112;BME280;9688;51.906;8.376;2023-05-10T00:28:56;99840.63;;;16.12;100.00
19112;BME280;9688;51.906;8.376;2023-05-10T00:31:42;99836.28;;;16.11;100.00
19112;BME280;9688;51.906;8.376;2023-05-10T00:34:32;99833.72;;;16.09;100.00
19112;BME280;9688;51.906;8.376;2023-05-10T00:37:18;99840.88;;;16.09;100.00
19112;BME280;9688;51.906;8.376;2023-05-10T00:40:05;99836.63;;;16.06;100.00
19112;BME280;9688;51.906;8.376;2023-05-10T00:42:51;99836.00;;;16.02;100.00
19112;BME280;9688;51.906;8.376;2023-05-10T00:45:37;99831.50;;;16.03;100.00
19112;BME280;9688;51.906;8.376;2023-05-10T00:48:24;99830.53;;;16.04;100.00
19112;BME280;9688;51.906;8.376;2023-05-10T00:51:12;99835.63;;;16.07;100.00
19112;BME280;9688;51.906;8.376;2023-05-10T00:53:58;99829.69;;;16.03;100.00
19112;BME280;9688;51.906;8.376;2023-05-10T00:56:44;99833.94;;;16.06;100.00
19112;BME280;9688;51.906;8.376;2023-05-10T00:59:32;99830.31;;;16.07;100.00
19112;BME280;9688;51.906;8.376;2023-05-10T01:02:18;99830.09;;;16.10;100.00
19112;BME280;9688;51.906;8.376;2023-05-10T01:05:04;99824.78;;;16.10;100.00
19112;BME280;9688;51.906;8.376;2023-05-10T01:07:52;99824.03;;;16.08;100.00
19112;BME280;9688;51.906;8.376;2023-05-10T01:10:38;99827.75;;;16.05;100.00
19112;BME280;9688;51.906;8.376;2023-05-10T01:13:34;99824.25;;;16.05;100.00
19112;BME280;9688;51.906;8.376;2023-05-10T01:16:21;99827.75;;;16.05;100.00
19112;BME280;9688;51.906;8.376;2023-05-10T01:19:12;99830.44;;;16.05;100.00
19112;BME280;9688;51.906;8.376;2023-05-10T01:22:07;99833.19;;;16.04;100.00
19112;BME280;9688;51.906;8.376;2023-05-10T01:25:34;99832.59;;;16.00;100.00
19112;BME280;9688;51.906;8.376;2023-05-10T01:28:54;99834.63;;;15.97;100.00
19112;BME280;9688;51.906;8.376;2023-05-10T01:32:15;99827.28;;;15.88;100.00
19112;BME280;9688;51.906;8.376;2023-05-10T01:35:05;99823.91;;;15.86;100.00
19112;BME280;9688;51.906;8.376;2023-05-10T01:37:57;99819.00;;;15.79;100.00
19112;BME280;9688;51.906;8.376;2023-05-10T01:40:58;99828.28;;;15.74;100.00
19112;BME280;9688;51.906;8.376;2023-05-10T01:43:54;99825.97;;;15.69;100.00
19112;BME280;9688;51.906;8.376;2023-05-10T01:46:41;99822.63;;;15.66;100.00
19112;BME280;9688;51.906;8.376;2023-05-10T01:49:32;99830.00;;;15.62;100.00
19112;BME280;9688;51.906;8.376;2023-05-10T01:52:20;99835.56;;;15.59;100.00
19112;BME280;9688;51.906;8.376;2023-05-10T01:55:10;99835.78;;;15.56;100.00
19112;BME280;9688;51.906;8.376;2023-05-10T01:58:01;99833.44;;;15.51;100.00
19112;BME280;9688;51.906;8.376;2023-05-10T02:00:49;99840.19;;;15.44;100.00
19112;BME280;9688;51.906;8.376;2023-05-10T02:03:36;99834.34;;;15.39;100.00
19112;BME280;9688;51.906;8.376;2023-05-10T02:06:26;99837.97;;;15.38;100.00
19112;BME280;9688;51.906;8.376;2023-05-10T02:09:13;99838.91;;;15.37;100.00
19112;BME280;9688;51.906;8.376;2023-05-10T02:12:01;99843.38;;;15.36;100.00
19112;BME280;9688;51.906;8.376;2023-05-10T02:14:47;99846.28;;;15.33;100.00
19112;BME280;9688;51.906;8.376;2023-05-10T02:17:34;99844.69;;;15.31;100.00
19112;BME280;9688;51.906;8.376;2023-05-10T02:20:20;99843.81;;;15.30;100.00
19112;BME280;9688;51.906;8.376;2023-05-10T02:23:09;99840.19;;;15.31;100.00
19112;BME280;9688;51.906;8.376;2023-05-10T02:25:56;99841.03;;;15.32;100.00
19112;BME280;9688;51.906;8.376;2023-05-10T02:28:43;99839.97;;;15.34;100.00
19112;BME280;9688;51.906;8.376;2023-05-10T02:31:30;99842.75;;;15.33;100.00
19112;BME280;9688;51.906;8.376;2023-05-10T02:34:17;99846.50;;;15.30;100.00
19112;BME280;9688;51.906;8.376;2023-05-10T02:37:03;99844.69;;;15.31;100.00
19112;BME280;9688;51.906;8.376;2023-05-10T02:39:53;99841.16;;;15.30;100.00
19112;BME280;9688;51.906;8.376;2023-05-10T02:42:42;99841.88;;;15.32;100.00
19112;BME280;9688;51.906;8.376;2023-05-10T02:45:31;99842.75;;;15.33;100.00
19112;BME280;9688;51.906;8.376;2023-05-10T02:48:17;99836.56;;;15.32;100.00
19112;BME280;9688;51.906;8.376;2023-05-10T02:51:05;99843.06;;;15.28;100.00
19112;BME280;9688;51.906;8.376;2023-05-10T02:53:53;99844.78;;;15.29;100.00
19112;BME280;9688;51.906;8.376;2023-05-10T02:56:47;99842.22;;;15.28;100.00
19112;BME280;9688;51.906;8.376;2023-05-10T02:59:32;99843.94;;;15.29;100.00
19112;BME280;9688;51.906;8.376;2023-05-10T03:02:18;99843.06;;;15.28;100.00
19112;BME280;9688;51.906;8.376;2023-05-10T03:05:04;99849.25;;;15.29;100.00
19112;BME280;9688;51.906;8.376;2023-05-10T03:07:50;99846.38;;;15.32;100.00
19112;BME280;9688;51.906;8.376;2023-05-10T03:10:41;99842.97;;;15.30;100.00
19112;BME280;9688;51.906;8.376;2023-05-10T03:13:38;99846.59;;;15.29;100.00
19112;BME280;9688;51.906;8.376;2023-05-10T03:16:29;99848.41;;;15.28;100.00
19112;BME280;9688;51.906;8.376;2023-05-10T03:19:24;99853.94;;;15.25;100.00
19112;BME280;9688;51.906;8.376;2023-05-10T03:22:13;99854.91;;;15.24;100.00
19112;BME280;9688;51.906;8.376;2023-05-10T03:25:06;99859.28;;;15.25;100.00
19112;BME280;9688;51.906;8.376;2023-05-10T03:27:54;99852.25;;;15.24;100.00
19112;BME280;9688;51.906;8.376;2023-05-10T03:30:43;99858.75;;;15.20;100.00
19112;BME280;9688;51.906;8.376;2023-05-10T03:33:30;99862.78;;;15.13;100.00
19112;BME280;9688;51.906;8.376;2023-05-10T03:36:15;99861.09;;;15.12;100.00
19112;BME280;9688;51.906;8.376;2023-05-10T03:39:01;99864.59;;;15.12;100.00
19112;BME280;9688;51.906;8.376;2023-05-10T03:41:47;99882.50;;;15.10;100.00
19112;BME280;9688;51.906;8.376;2023-05-10T03:44:33;99875.25;;;15.00;100.00
19112;BME280;9688;51.906;8.376;2023-05-10T03:47:20;99881.19;;;14.90;100.00
19112;BME280;9688;51.906;8.376;2023-05-10T03:50:06;99888.13;;;14.80;100.00
19112;BME280;9688;51.906;8.376;2023-05-10T03:52:52;99889.47;;;14.73;100.00
19112;BME280;9688;51.906;8.376;2023-05-10T03:55:38;99886.19;;;14.69;100.00
19112;BME280;9688;51.906;8.376;2023-05-10T03:58:23;99899.69;;;14.66;100.00
19112;BME280;9688;51.906;8.376;2023-05-10T04:01:09;99902.66;;;14.62;100.00
19112;BME280;9688;51.906;8.376;2023-05-10T04:03:55;99909.03;;;14.59;100.00
19112;BME280;9688;51.906;8.376;2023-05-10T04:06:41;99910.00;;;14.58;100.00
19112;BME280;9688;51.906;8.376;2023-05-10T04:09:26;99900.28;;;14.57;100.00
19112;BME280;9688;51.906;8.376;2023-05-10T04:12:12;99907.31;;;14.58;100.00
19112;BME280;9688;51.906;8.376;2023-05-10T04:14:57;99906.47;;;14.58;100.00
19112;BME280;9688;51.906;8.376;2023-05-10T04:17:43;99915.41;;;14.57;100.00
19112;BME280;9688;51.906;8.376;2023-05-10T04:20:32;99920.34;;;14.48;100.00
19112;BME280;9688;51.906;8.376;2023-05-10T04:23:18;99922.22;;;14.46;100.00
19112;BME280;9688;51.906;8.376;2023-05-10T04:26:03;99921.38;;;14.46;100.00
19112;BME280;9688;51.906;8.376;2023-05-10T04:28:49;99920.75;;;14.42;100.00
19112;BME280;9688;51.906;8.376;2023-05-10T04:31:34;99927.22;;;14.38;100.00
19112;BME280;9688;51.906;8.376;2023-05-10T04:34:20;99928.16;;;14.37;100.00
19112;BME280;9688;51.906;8.376;2023-05-10T04:37:07;99923.06;;;14.34;100.00
19112;BME280;9688;51.906;8.376;2023-05-10T04:39:53;99934.66;;;14.33;100.00
19112;BME280;9688;51.906;8.376;2023-05-10T04:42:39;99936.56;;;14.31;100.00
19112;BME280;9688;51.906;8.376;2023-05-10T04:45:26;99936.84;;;14.26;100.00
19112;BME280;9688;51.906;8.376;2023-05-10T04:48:12;99938.66;;;14.26;100.00
19112;BME280;9688;51.906;8.376;2023-05-10T04:50:57;99947.38;;;14.28;100.00
19112;BME280;9688;51.906;8.376;2023-05-10T04:53:44;99937.59;;;14.28;100.00
19112;BME280;9688;51.906;8.376;2023-05-10T04:56:30;99948.88;;;14.32;100.00
19112;BME280;9688;51.906;8.376;2023-05-10T04:59:15;99954.88;;;14.36;100.00
19112;BME280;9688;51.906;8.376;2023-05-10T05:02:01;99959.16;;;14.38;100.00
19112;BME280;9688;51.906;8.376;2023-05-10T05:04:47;99966.25;;;14.38;100.00
19112;BME280;9688;51.906;8.376;2023-05-10T05:07:33;99962.72;;;14.37;100.00
19112;BME280;9688;51.906;8.376;2023-05-10T05:10:20;99976.69;;;14.41;100.00
19112;BME280;9688;51.906;8.376;2023-05-10T05:13:06;99969.78;;;14.38;100.00
19112;BME280;9688;51.906;8.376;2023-05-10T05:15:52;99974.13;;;14.39;100.00
19112;BME280;9688;51.906;8.376;2023-05-10T05:18:37;99972.31;;;14.40;100.00
19112;BME280;9688;51.906;8.376;2023-05-10T05:21:24;99980.28;;;14.40;100.00
19112;BME280;9688;51.906;8.376;2023-05-10T05:24:12;99985.53;;;14.41;100.00
19112;BME280;9688;51.906;8.376;2023-05-10T05:27:00;99985.53;;;14.41;100.00
19112;BME280;9688;51.906;8.376;2023-05-10T05:29:46;99985.91;;;14.35;100.00
19112;BME280;9688;51.906;8.376;2023-05-10T05:32:31;100001.22;;;14.32;100.00
19112;BME280;9688;51.906;8.376;2023-05-10T05:35:17;100002.91;;;14.33;100.00
19112;BME280;9688;51.906;8.376;2023-05-10T05:38:02;100003.59;;;14.36;100.00
19112;BME280;9688;51.906;8.376;2023-05-10T05:40:48;100004.44;;;14.37;100.00
19112;BME280;9688;51.906;8.376;2023-05-10T05:43:35;99999.88;;;14.39;100.00
19112;BME280;9688;51.906;8.376;2023-05-10T05:46:21;100012.97;;;14.42;100.00
19112;BME280;9688;51.906;8.376;2023-05-10T05:49:08;100015.31;;;14.46;100.00
19112;BME280;9688;51.906;8.376;2023-05-10T05:51:58;100015.31;;;14.46;100.00
19112;BME280;9688;51.906;8.376;2023-05-10T05:54:44;100014.97;;;14.53;100.00
19112;BME280;9688;51.906;8.376;2023-05-10T05:57:30;100019.13;;;14.57;100.00
19112;BME280;9688;51.906;8.376;2023-05-10T06:00:21;100020.53;;;14.62;100.00
19112;BME280;9688;51.906;8.376;2023-05-10T06:03:08;100022.78;;;14.68;100.00
19112;BME280;9688;51.906;8.376;2023-05-10T06:05:54;100026.00;;;14.73;100.00
19112;BME280;9688;51.906;8.376;2023-05-10T06:08:42;100036.66;;;14.73;100.00
19112;BME280;9688;51.906;8.376;2023-05-10T06:11:28;100034.00;;;14.73;100.00
19112;BME280;9688;51.906;8.376;2023-05-10T06:14:15;100037.41;;;14.76;100.00
19112;BME280;9688;51.906;8.376;2023-05-10T06:17:01;100032.00;;;14.77;100.00
19112;BME280;9688;51.906;8.376;2023-05-10T06:19:49;100033.78;;;14.77;100.00
19112;BME280;9688;51.906;8.376;2023-05-10T06:22:34;100041.56;;;14.80;100.00
19112;BME280;9688;51.906;8.376;2023-05-10T06:25:20;100046.72;;;14.83;100.00
19112;BME280;9688;51.906;8.376;2023-05-10T06:28:05;100041.28;;;14.84;100.00
19112;BME280;9688;51.906;8.376;2023-05-10T06:30:51;100050.03;;;14.86;100.00
19112;BME280;9688;51.906;8.376;2023-05-10T06:33:38;100060.56;;;14.88;100.00
19112;BME280;9688;51.906;8.376;2023-05-10T06:36:24;100062.06;;;14.92;100.00
19112;BME280;9688;51.906;8.376;2023-05-10T06:39:10;100065.28;;;14.97;100.00
19112;BME280;9688;51.906;8.376;2023-05-10T06:41:56;100062.63;;;14.97;100.00
19112;BME280;9688;51.906;8.376;2023-05-10T06:44:41;100061.59;;;15.00;100.00
19112;BME280;9688;51.906;8.376;2023-05-10T06:47:27;100072.66;;;15.06;100.00
19112;BME280;9688;51.906;8.376;2023-05-10T06:50:15;100075.69;;;15.14;100.00
19112;BME280;9688;51.906;8.376;2023-05-10T06:53:01;100083.25;;;15.21;100.00
19112;BME280;9688;51.906;8.376;2023-05-10T06:55:46;100074.13;;;15.25;100.00
19112;BME280;9688;51.906;8.376;2023-05-10T06:58:32;100079.88;;;15.31;100.00
19112;BME280;9688;51.906;8.376;2023-05-10T07:01:18;100082.03;;;15.39;100.00
19112;BME280;9688;51.906;8.376;2023-05-10T07:04:04;100079.06;;;15.44;100.00
19112;BME280;9688;51.906;8.376;2023-05-10T07:06:51;100081.31;;;15.50;100.00
19112;BME280;9688;51.906;8.376;2023-05-10T07:09:37;100087.72;;;15.60;100.00
19112;BME280;9688;51.906;8.376;2023-05-10T07:12:24;100083.50;;;15.70;100.00
19112;BME280;9688;51.906;8.376;2023-05-10T07:15:13;100086.72;;;15.88;100.00
19112;BME280;9688;51.906;8.376;2023-05-10T07:18:01;100084.78;;;16.03;100.00
19112;BME280;9688;51.906;8.376;2023-05-10T07:20:51;100085.00;;;16.13;100.00
19112;BME280;9688;51.906;8.376;2023-05-10T07:23:39;100091.38;;;16.23;100.00
19112;BME280;9688;51.906;8.376;2023-05-10T07:26:24;100083.81;;;16.30;100.00
19112;BME280;9688;51.906;8.376;2023-05-10T07:29:10;100090.84;;;16.31;100.00
19112;BME280;9688;51.906;8.376;2023-05-10T07:31:59;100091.63;;;16.33;100.00
19112;BME280;9688;51.906;8.376;2023-05-10T07:34:45;100097.25;;;16.41;100.00
19112;BME280;9688;51.906;8.376;2023-05-10T07:37:31;100095.09;;;16.46;100.00
19112;BME280;9688;51.906;8.376;2023-05-10T07:40:18;100098.28;;;16.51;100.00
19112;BME280;9688;51.906;8.376;2023-05-10T07:43:04;100101.41;;;16.45;100.00
19112;BME280;9688;51.906;8.376;2023-05-10T07:45:51;100102.78;;;16.38;100.00
19112;BME280;9688;51.906;8.376;2023-05-10T07:48:36;100106.84;;;16.43;100.00
19112;BME280;9688;51.906;8.376;2023-05-10T07:51:22;100097.22;;;16.54;100.00
19112;BME280;9688;51.906;8.376;2023-05-10T07:54:09;100100.81;;;16.65;100.00
19112;BME280;9688;51.906;8.376;2023-05-10T07:56:56;100102.72;;;16.89;100.00
19112;BME280;9688;51.906;8.376;2023-05-10T07:59:42;100107.19;;;17.12;100.00
19112;BME280;9688;51.906;8.376;2023-05-10T08:02:35;100098.34;;;17.36;100.00
19112;BME280;9688;51.906;8.376;2023-05-10T08:05:22;100097.66;;;17.56;99.79
19112;BME280;9688;51.906;8.376;2023-05-10T08:08:07;100100.56;;;17.53;99.95
19112;BME280;9688;51.906;8.376;2023-05-10T08:10:53;100101.38;;;17.43;100.00
19112;BME280;9688;51.906;8.376;2023-05-10T08:13:44;100110.44;;;17.29;99.46
19112;BME280;9688;51.906;8.376;2023-05-10T08:16:32;100110.91;;;17.23;99.79
19112;BME280;9688;51.906;8.376;2023-05-10T08:19:18;100113.75;;;17.08;100.00
19112;BME280;9688;51.906;8.376;2023-05-10T08:22:05;100122.66;;;16.96;100.00
19112;BME280;9688;51.906;8.376;2023-05-10T08:24:51;100122.69;;;16.83;100.00
19112;BME280;9688;51.906;8.376;2023-05-10T08:27:37;100132.06;;;16.76;100.00
19112;BME280;9688;51.906;8.376;2023-05-10T08:30:24;100123.00;;;16.91;100.00
19112;BME280;9688;51.906;8.376;2023-05-10T08:33:09;100133.06;;;17.12;99.79
19112;BME280;9688;51.906;8.376;2023-05-10T08:35:55;100124.19;;;17.11;99.26
19112;BME280;9688;51.906;8.376;2023-05-10T08:38:40;100134.28;;;16.95;99.39
19112;BME280;9688;51.906;8.376;2023-05-10T08:41:26;100135.72;;;16.88;100.00
19112;BME280;9688;51.906;8.376;2023-05-10T08:44:12;100140.41;;;16.84;100.00
19112;BME280;9688;51.906;8.376;2023-05-10T08:47:04;100145.34;;;16.90;100.00
19112;BME280;9688;51.906;8.376;2023-05-10T08:49:51;100128.84;;;16.97;100.00
19112;BME280;9688;51.906;8.376;2023-05-10T08:52:40;100141.75;;;17.03;99.99
19112;BME280;9688;51.906;8.376;2023-05-10T08:55:27;100144.09;;;17.07;99.92
19112;BME280;9688;51.906;8.376;2023-05-10T08:58:12;100146.63;;;17.09;100.00
19112;BME280;9688;51.906;8.376;2023-05-10T09:00:59;100152.88;;;17.21;99.96
19112;BME280;9688;51.906;8.376;2023-05-10T09:03:49;100154.22;;;17.39;99.66
19112;BME280;9688;51.906;8.376;2023-05-10T09:06:38;100151.63;;;17.61;99.28
19112;BME280;9688;51.906;8.376;2023-05-10T09:09:25;100158.69;;;17.87;98.35
19112;BME280;9688;51.906;8.376;2023-05-10T09:12:13;100161.66;;;18.06;97.36
19112;BME280;9688;51.906;8.376;2023-05-10T09:14:59;100166.78;;;18.20;97.09
19112;BME280;9688;51.906;8.376;2023-05-10T09:17:47;100163.25;;;18.31;96.45
19112;BME280;9688;51.906;8.376;2023-05-10T09:20:37;100155.97;;;18.44;95.45
19112;BME280;9688;51.906;8.376;2023-05-10T09:23:22;100174.63;;;18.57;94.95
19112;BME280;9688;51.906;8.376;2023-05-10T09:26:22;100158.56;;;18.68;93.84
19112;BME280;9688;51.906;8.376;2023-05-10T09:29:08;100163.31;;;18.87;93.35
19112;BME280;9688;51.906;8.376;2023-05-10T09:31:54;100164.88;;;19.01;92.39
19112;BME280;9688;51.906;8.376;2023-05-10T09:34:40;100172.03;;;19.12;91.49
19112;BME280;9688;51.906;8.376;2023-05-10T09:37:35;100176.78;;;19.08;91.20
19112;BME280;9688;51.906;8.376;2023-05-10T09:40:22;100171.88;;;19.25;90.76
19112;BME280;9688;51.906;8.376;2023-05-10T09:43:10;100175.56;;;19.56;89.90
19112;BME280;9688;51.906;8.376;2023-05-10T09:45:58;100174.53;;;20.00;88.46
19112;BME280;9688;51.906;8.376;2023-05-10T09:48:46;100169.41;;;20.39;87.23
19112;BME280;9688;51.906;8.376;2023-05-10T09:51:35;100166.16;;;20.66;85.75
19112;BME280;9688;51.906;8.376;2023-05-10T09:54:22;100169.78;;;20.56;84.89
19112;BME280;9688;51.906;8.376;2023-05-10T09:57:20;100171.88;;;20.52;84.57
19112;BME280;9688;51.906;8.376;2023-05-10T10:00:09;100171.81;;;20.63;83.38
19112;BME280;9688;51.906;8.376;2023-05-10T10:02:58;100168.09;;;20.85;81.81
19112;BME280;9688;51.906;8.376;2023-05-10T10:05:48;100173.34;;;20.97;81.47
19112;BME280;9688;51.906;8.376;2023-05-10T10:08:47;100166.72;;;21.01;81.55
19112;BME280;9688;51.906;8.376;2023-05-10T10:11:38;100161.53;;;21.19;80.48
19112;BME280;9688;51.906;8.376;2023-05-10T10:14:28;100167.53;;;21.42;80.04
19112;BME280;9688;51.906;8.376;2023-05-10T10:17:17;100165.84;;;21.41;79.00
19112;BME280;9688;51.906;8.376;2023-05-10T10:20:05;100169.75;;;21.36;78.67
19112;BME280;9688;51.906;8.376;2023-05-10T10:22:55;100166.63;;;21.22;78.85
19112;BME280;9688;51.906;8.376;2023-05-10T10:25:42;100157.97;;;21.08;78.97
19112;BME280;9688;51.906;8.376;2023-05-10T10:28:38;100160.78;;;21.07;77.84
19112;BME280;9688;51.906;8.376;2023-05-10T10:31:36;100163.66;;;21.15;77.19
19112;BME280;9688;51.906;8.376;2023-05-10T10:34:27;100163.78;;;21.13;77.43
19112;BME280;9688;51.906;8.376;2023-05-10T10:37:15;100166.69;;;20.91;77.37
19112;BME280;9688;51.906;8.376;2023-05-10T10:43:22;100161.06;;;20.42;78.41
19112;BME280;9688;51.906;8.376;2023-05-10T10:46:14;100160.13;;;20.22;78.84
19112;BME280;9688;51.906;8.376;2023-05-10T10:49:09;100158.31;;;20.02;79.39
19112;BME280;9688;51.906;8.376;2023-05-10T10:52:20;100161.38;;;19.97;79.35
19112;BME280;9688;51.906;8.376;2023-05-10T10:55:10;100158.31;;;20.02;79.08
19112;BME280;9688;51.906;8.376;2023-05-10T10:58:12;100155.34;;;20.05;78.49
19112;BME280;9688;51.906;8.376;2023-05-10T11:01:22;100158.03;;;20.05;78.16
19112;BME280;9688;51.906;8.376;2023-05-10T11:04:20;100154.38;;;20.06;78.11
19112;BME280;9688;51.906;8.376;2023-05-10T11:07:17;100165.50;;;20.01;77.99
19112;BME280;9688;51.906;8.376;2023-05-10T11:10:09;100175.19;;;19.93;79.11
19112;BME280;9688;51.906;8.376;2023-05-10T11:13:06;100174.84;;;19.86;80.33
19112;BME280;9688;51.906;8.376;2023-05-10T11:15:56;100173.00;;;19.66;82.17
19112;BME280;9688;51.906;8.376;2023-05-10T11:18:58;100167.41;;;19.57;83.41
19112;BME280;9688;51.906;8.376;2023-05-10T11:22:12;100172.25;;;19.64;83.88
19112;BME280;9688;51.906;8.376;2023-05-10T11:24:59;100185.13;;;19.81;84.04
19112;BME280;9688;51.906;8.376;2023-05-10T11:27:48;100168.19;;;20.01;84.00
19112;BME280;9688;51.906;8.376;2023-05-10T11:30:38;100173.50;;;20.13;84.28
19112;BME280;9688;51.906;8.376;2023-05-10T11:33:27;100170.41;;;20.17;84.33
19112;BME280;9688;51.906;8.376;2023-05-10T11:36:23;100176.03;;;20.14;84.26
19112;BME280;9688;51.906;8.376;2023-05-10T11:39:10;100192.59;;;19.98;85.42
19112;BME280;9688;51.906;8.376;2023-05-10T11:42:02;100207.56;;;19.80;86.21
19112;BME280;9688;51.906;8.376;2023-05-10T11:44:49;100214.75;;;19.36;88.14
19112;BME280;9688;51.906;8.376;2023-05-10T11:47:34;100216.41;;;18.82;90.30
19112;BME280;9688;51.906;8.376;2023-05-10T11:50:21;100219.75;;;18.50;91.98
19112;BME280;9688;51.906;8.376;2023-05-10T11:53:08;100213.88;;;18.34;93.25
19112;BME280;9688;51.906;8.376;2023-05-10T11:55:54;100213.25;;;18.19;94.57
19112;BME280;9688;51.906;8.376;2023-05-10T11:58:43;100212.13;;;18.11;94.95
19112;BME280;9688;51.906;8.376;2023-05-10T12:01:29;100219.97;;;18.01;95.73
19112;BME280;9688;51.906;8.376;2023-05-10T12:04:14;100221.69;;;17.91;96.05
19112;BME280;9688;51.906;8.376;2023-05-10T12:07:00;100218.50;;;17.86;96.21
19112;BME280;9688;51.906;8.376;2023-05-10T12:10:09;100220.41;;;17.83;96.83
19112;BME280;9688;51.906;8.376;2023-05-10T12:13:06;100227.97;;;17.90;96.96
19112;BME280;9688;51.906;8.376;2023-05-10T12:15:59;100216.94;;;17.94;96.98
19112;BME280;9688;51.906;8.376;2023-05-10T12:19:05;100215.38;;;18.03;96.73
19112;BME280;9688;51.906;8.376;2023-05-10T12:21:51;100220.41;;;18.19;96.79
19112;BME280;9688;51.906;8.376;2023-05-10T12:24:36;100221.44;;;18.29;96.09
19112;BME280;9688;51.906;8.376;2023-05-10T12:27:25;100214.97;;;18.32;95.89
19112;BME280;9688;51.906;8.376;2023-05-10T12:30:22;100224.38;;;18.48;95.43
19112;BME280;9688;51.906;8.376;2023-05-10T12:33:09;100224.25;;;18.61;94.61
19112;BME280;9688;51.906;8.376;2023-05-10T12:35:59;100227.97;;;18.83;93.45
19112;BME280;9688;51.906;8.376;2023-05-10T12:38:45;100224.91;;;18.99;92.32
19112;BME280;9688;51.906;8.376;2023-05-10T12:41:32;100224.91;;;19.10;91.33
19112;BME280;9688;51.906;8.376;2023-05-10T12:44:20;100233.66;;;19.12;90.71
19112;BME280;9688;51.906;8.376;2023-05-10T12:47:06;100230.75;;;19.15;90.70
19112;BME280;9688;51.906;8.376;2023-05-10T12:49:53;100231.44;;;19.28;90.49
19112;BME280;9688;51.906;8.376;2023-05-10T12:52:39;100235.81;;;19.41;89.76
19112;BME280;9688;51.906;8.376;2023-05-10T12:55:25;100234.84;;;19.42;89.77
19112;BME280;9688;51.906;8.376;2023-05-10T12:58:11;100234.25;;;19.38;90.22
19112;BME280;9688;51.906;8.376;2023-05-10T13:00:59;100231.66;;;19.36;90.57
19112;BME280;9688;51.906;8.376;2023-05-10T13:03:46;100239.72;;;19.36;90.67
19112;BME280;9688;51.906;8.376;2023-05-10T13:06:32;100247.91;;;19.35;90.80
19112;BME280;9688;51.906;8.376;2023-05-10T13:09:19;100255.44;;;19.30;91.01
19112;BME280;9688;51.906;8.376;2023-05-10T13:12:05;100256.81;;;19.24;90.63
19112;BME280;9688;51.906;8.376;2023-05-10T13:14:51;100262.91;;;19.15;90.71
19112;BME280;9688;51.906;8.376;2023-05-10T13:17:40;100273.00;;;19.00;91.17
19112;BME280;9688;51.906;8.376;2023-05-10T13:20:27;100279.09;;;18.80;92.18
19112;BME280;9688;51.906;8.376;2023-05-10T13:23:12;100292.88;;;18.51;92.78
19112;BME280;9688;51.906;8.376;2023-05-10T13:25:58;100293.47;;;18.08;93.84
19112;BME280;9688;51.906;8.376;2023-05-10T13:28:45;100281.31;;;17.67;94.62
19112;BME280;9688;51.906;8.376;2023-05-10T13:31:31;100282.78;;;17.34;95.92
19112;BME280;9688;51.906;8.376;2023-05-10T13:34:18;100276.00;;;17.17;97.10
19112;BME280;9688;51.906;8.376;2023-05-10T13:37:11;100273.78;;;17.11;96.98
19112;BME280;9688;51.906;8.376;2023-05-10T13:39:57;100279.88;;;17.13;97.06
19112;BME280;9688;51.906;8.376;2023-05-10T13:42:43;100278.88;;;17.27;97.35
19112;BME280;9688;51.906;8.376;2023-05-10T13:45:29;100276.81;;;17.44;97.16
19112;BME280;9688;51.906;8.376;2023-05-10T13:48:15;100275.22;;;17.65;96.14
19112;BME280;9688;51.906;8.376;2023-05-10T13:51:02;100272.34;;;17.92;95.16
19112;BME280;9688;51.906;8.376;2023-05-10T13:53:48;100274.78;;;18.19;94.58
19112;BME280;9688;51.906;8.376;2023-05-10T13:56:36;100279.34;;;18.41;93.80
19112;BME280;9688;51.906;8.376;2023-05-10T13:59:22;100277.94;;;18.60;93.91
19112;BME280;9688;51.906;8.376;2023-05-10T14:02:08;100280.63;;;18.71;93.49
19112;BME280;9688;51.906;8.376;2023-05-10T14:04:57;100281.03;;;18.78;93.12
19112;BME280;9688;51.906;8.376;2023-05-10T14:07:46;100275.19;;;18.84;92.06
19112;BME280;9688;51.906;8.376;2023-05-10T14:10:33;100284.56;;;18.89;92.05
19112;BME280;9688;51.906;8.376;2023-05-10T14:13:18;100288.72;;;18.93;92.64
19112;BME280;9688;51.906;8.376;2023-05-10T14:16:05;100293.09;;;19.06;92.01
19112;BME280;9688;51.906;8.376;2023-05-10T14:18:51;100281.66;;;19.15;91.44
19112;BME280;9688;51.906;8.376;2023-05-10T14:21:37;100291.06;;;19.21;91.36
19112;BME280;9688;51.906;8.376;2023-05-10T14:24:24;100282.03;;;19.22;91.12
19112;BME280;9688;51.906;8.376;2023-05-10T14:27:10;100284.44;;;19.25;91.13
19112;BME280;9688;51.906;8.376;2023-05-10T14:29:57;100274.56;;;19.25;90.98
19112;BME280;9688;51.906;8.376;2023-05-10T14:32:44;100271.66;;;19.28;91.32
19112;BME280;9688;51.906;8.376;2023-05-10T14:35:30;100273.94;;;19.44;91.55
19112;BME280;9688;51.906;8.376;2023-05-10T14:38:17;100262.09;;;19.69;90.64
19112;BME280;9688;51.906;8.376;2023-05-10T14:41:04;100253.66;;;19.85;89.51
19112;BME280;9688;51.906;8.376;2023-05-10T14:43:51;100257.06;;;19.87;89.14
19112;BME280;9688;51.906;8.376;2023-05-10T14:46:38;100253.06;;;19.81;88.26
19112;BME280;9688;51.906;8.376;2023-05-10T14:49:25;100255.59;;;19.83;87.77
19112;BME280;9688;51.906;8.376;2023-05-10T14:52:42;100260.19;;;19.92;86.13